createdAt,value
2019-05-12T00:04:39.605Z,97622.48
2019-05-12T00:09:42.890Z,97609.44
2019-05-12T00:14:48.394Z,97607.59
2019-05-12T00:19:51.202Z,97611.94
2019-05-12T00:24:54.521Z,97615.77
2019-05-12T00:29:57.945Z,97629.48
2019-05-12T00:35:01.193Z,97634.77
2019-05-12T00:40:05.274Z,97633.13
2019-05-12T00:45:08.818Z,97642.78
2019-05-12T00:50:12.107Z,97646.63
2019-05-12T00:55:15.403Z,97658.64
2019-05-12T01:00:19.520Z,97668.02
2019-05-12T01:05:22.876Z,97677.14
2019-05-12T01:10:28.316Z,97677.83
2019-05-12T01:15:31.222Z,97680.95
2019-05-12T01:20:34.547Z,97691.84
2019-05-12T01:25:39.600Z,97695.77
2019-05-12T01:30:43.248Z,97704.57
2019-05-12T01:35:48.273Z,97698.23
2019-05-12T01:40:51.705Z,97698.70
2019-05-12T01:45:55.004Z,97706.36
2019-05-12T01:50:58.363Z,97718.67
2019-05-12T01:56:01.661Z,97721.03
2019-05-12T02:01:05.069Z,97732.03
2019-05-12T02:06:08.505Z,97743.38
2019-05-12T02:11:29.560Z,97753.95
2019-05-12T02:16:33.113Z,97766.78
2019-05-12T02:21:38.191Z,97776.63
2019-05-12T02:26:41.508Z,97783.14
2019-05-12T02:31:44.807Z,97789.07
2019-05-12T02:36:48.094Z,97798.24
2019-05-12T02:41:54.049Z,97807.09
2019-05-12T02:46:56.420Z,97809.52
2019-05-12T02:52:00.045Z,97819.61
2019-05-12T02:57:04.771Z,97830.98
2019-05-12T03:02:09.550Z,97858.51
2019-05-12T03:07:15.263Z,97866.46
2019-05-12T03:12:18.142Z,97875.35
2019-05-12T03:17:24.870Z,97900.22
2019-05-12T03:22:26.472Z,97905.15
2019-05-12T03:27:29.819Z,97927.00
2019-05-12T03:32:37.881Z,97925.94
2019-05-12T03:37:38.211Z,97926.58
2019-05-12T03:42:44.168Z,97945.86
2019-05-12T03:47:46.510Z,97965.00
2019-05-12T03:52:49.906Z,97984.18
2019-05-12T03:57:55.127Z,97982.47
2019-05-12T04:02:58.204Z,97995.09
2019-05-12T04:08:05.106Z,98005.34
2019-05-12T04:13:06.638Z,98015.34
2019-05-12T04:18:09.962Z,98018.48
2019-05-12T04:23:15.356Z,98016.86
2019-05-12T04:28:18.311Z,98040.09
2019-05-12T04:33:21.607Z,98043.03
2019-05-12T04:38:25.112Z,98055.32
2019-05-12T04:43:28.357Z,98060.91
2019-05-12T04:48:35.837Z,98071.43
2019-05-12T04:53:37.576Z,98090.02
2019-05-12T04:58:40.906Z,98097.78
2019-05-12T05:03:44.498Z,98106.42
2019-05-12T05:08:47.865Z,98114.19
2019-05-12T05:13:51.152Z,98122.08
2019-05-12T05:18:54.493Z,98128.42
2019-05-12T05:23:57.732Z,98130.98
2019-05-12T05:29:01.022Z,98143.53
2019-05-12T05:34:05.023Z,98152.42
2019-05-12T05:39:08.466Z,98157.81
2019-05-12T05:44:13.894Z,98167.62
2019-05-12T05:49:16.767Z,98175.94
2019-05-12T05:54:24.760Z,98179.81
2019-05-12T05:59:31.151Z,98186.11
2019-05-12T06:04:30.284Z,98204.08
2019-05-12T06:09:34.006Z,98210.00
2019-05-12T06:14:40.625Z,98213.12
2019-05-12T06:19:43.774Z,98226.55
2019-05-12T06:24:49.062Z,98248.03
2019-05-12T06:30:00.801Z,98242.54
2019-05-12T06:35:01.489Z,98256.09
2019-05-12T06:40:05.269Z,98256.86
2019-05-12T06:45:08.746Z,98255.98
2019-05-12T06:50:14.535Z,98274.42
2019-05-12T06:55:17.523Z,98276.80
2019-05-12T07:00:22.364Z,98288.13
2019-05-12T07:05:28.155Z,98295.73
2019-05-12T07:10:39.564Z,98302.13
2019-05-12T07:15:40.389Z,98316.89
2019-05-12T07:20:43.403Z,98308.11
2019-05-12T07:25:47.882Z,98333.33
2019-05-12T07:30:54.339Z,98332.25
2019-05-12T07:36:01.452Z,98336.71
2019-05-12T07:41:06.757Z,98338.91
2019-05-12T07:46:09.092Z,98347.44
2019-05-12T07:51:13.753Z,98358.58
2019-05-12T07:56:19.550Z,98359.63
2019-05-12T08:01:23.602Z,98373.05
2019-05-12T08:06:26.989Z,98383.89
2019-05-12T08:11:36.647Z,98384.30
2019-05-12T08:16:36.911Z,98388.42
2019-05-12T08:21:43.750Z,98384.85
2019-05-12T08:26:49.692Z,98389.39
2019-05-12T08:31:50.441Z,98392.90
2019-05-12T08:36:57.825Z,98402.06
2019-05-12T08:41:58.767Z,98407.63
2019-05-12T08:47:03.924Z,98413.19
2019-05-12T08:52:07.063Z,98423.73
2019-05-12T08:57:10.342Z,98431.34
2019-05-12T09:02:13.939Z,98428.91
2019-05-12T09:07:17.593Z,98426.30
2019-05-12T09:12:23.177Z,98438.44
2019-05-12T09:17:26.001Z,98442.97
2019-05-12T09:22:29.360Z,98443.68
2019-05-12T09:27:33.466Z,98455.72
2019-05-12T09:32:39.082Z,98467.05
2019-05-12T09:37:43.967Z,98473.30
2019-05-12T09:42:47.008Z,98486.00
2019-05-12T09:47:51.273Z,98480.12
2019-05-12T09:52:55.602Z,98481.94
2019-05-12T09:57:59.589Z,98484.45
2019-05-12T10:03:04.831Z,98490.48
2019-05-12T10:08:07.905Z,98494.31
2019-05-12T10:13:13.666Z,98504.06
2019-05-12T10:18:16.396Z,98509.92
2019-05-12T10:23:24.146Z,98517.00
2019-05-12T10:28:24.703Z,98515.18
2019-05-12T10:33:27.998Z,98516.80
2019-05-12T10:38:31.306Z,98525.01
2019-05-12T10:43:34.591Z,98533.91
2019-05-12T10:48:37.897Z,98535.77
2019-05-12T10:53:43.141Z,98535.00
2019-05-12T10:58:46.241Z,98553.19
2019-05-12T11:03:50.737Z,98551.37
2019-05-12T11:08:54.425Z,98565.67
2019-05-12T11:13:57.718Z,98560.12
2019-05-12T11:19:08.776Z,98563.08
2019-05-12T11:24:06.051Z,98574.63
2019-05-12T11:29:09.332Z,98575.23
2019-05-12T11:34:12.629Z,98573.95
2019-05-12T11:39:15.948Z,98571.31
2019-05-12T11:44:19.242Z,98584.19
2019-05-12T11:49:26.282Z,98585.23
2019-05-12T11:54:28.087Z,98591.59
2019-05-12T11:59:31.452Z,98591.27
2019-05-12T12:04:39.339Z,98594.75
2019-05-12T12:09:43.859Z,98600.24
2019-05-12T12:14:50.426Z,98603.91
2019-05-12T12:19:54.461Z,98606.97
2019-05-12T12:25:03.179Z,98616.22
2019-05-12T12:30:16.046Z,98622.83
2019-05-12T12:35:11.875Z,98631.94
2019-05-12T12:40:14.360Z,98641.14
2019-05-12T12:45:30.455Z,98639.25
2019-05-12T12:50:34.395Z,98645.73
2019-05-12T12:55:42.914Z,98640.34
2019-05-12T13:00:48.117Z,98645.75
2019-05-12T13:05:47.797Z,98637.39
2019-05-12T13:10:53.934Z,98644.92
2019-05-12T13:15:56.197Z,98656.16
2019-05-12T13:20:59.508Z,98662.92
2019-05-12T13:26:04.327Z,98669.59
2019-05-12T13:31:12.846Z,98688.79
2019-05-12T13:36:13.641Z,98688.77
2019-05-12T13:41:19.896Z,98689.77
2019-05-12T13:46:23.917Z,98695.02
2019-05-12T13:51:27.320Z,98688.92
2019-05-12T13:56:35.244Z,98688.58
2019-05-12T14:01:40.120Z,98684.06
2019-05-12T14:06:40.713Z,98687.28
2019-05-12T14:11:44.006Z,98682.75
2019-05-12T14:16:53.567Z,98686.41
2019-05-12T14:21:54.193Z,98679.75
2019-05-12T14:26:57.374Z,98687.84
2019-05-12T14:32:03.019Z,98675.72
2019-05-12T14:37:10.217Z,98693.84
2019-05-12T14:42:13.496Z,98692.36
2019-05-12T14:47:19.286Z,98683.95
2019-05-12T14:52:21.714Z,98690.89
2019-05-12T14:57:29.428Z,98689.25
2019-05-12T15:02:30.053Z,98695.92
2019-05-12T15:07:33.348Z,98694.60
2019-05-12T15:12:36.657Z,98696.38
2019-05-12T15:17:39.957Z,98701.31
2019-05-12T15:22:51.230Z,98705.03
2019-05-12T15:27:48.587Z,98707.89
2019-05-12T15:32:53.621Z,98700.80
2019-05-12T15:37:56.942Z,98705.80
2019-05-12T15:43:00.727Z,98718.51
2019-05-12T15:48:05.265Z,98724.89
2019-05-12T15:53:13.779Z,98721.24
2019-05-12T15:58:14.314Z,98723.64
2019-05-12T16:03:17.797Z,98733.30
2019-05-12T16:08:21.174Z,98738.47
2019-05-12T16:13:24.571Z,98737.83
2019-05-12T16:18:27.854Z,98739.30
2019-05-12T16:23:31.163Z,98739.25
2019-05-12T16:28:34.462Z,98738.20
2019-05-12T16:33:37.834Z,98748.33
2019-05-12T16:38:41.255Z,98743.30
2019-05-12T16:43:44.544Z,98761.12
2019-05-12T16:48:53.494Z,98764.40
2019-05-12T16:53:53.974Z,98766.45
2019-05-12T16:58:57.418Z,98778.28
2019-05-12T17:04:00.741Z,98779.34
2019-05-12T17:09:06.951Z,98784.61
2019-05-12T17:14:10.276Z,98798.34
2019-05-12T17:19:15.459Z,98805.37
2019-05-12T17:24:18.915Z,98808.22
2019-05-12T17:29:24.196Z,98808.89
2019-05-12T17:34:28.254Z,98816.96
2019-05-12T17:39:35.787Z,98825.47
2019-05-12T17:44:38.953Z,98831.77
2019-05-12T17:49:43.638Z,98836.33
2019-05-12T17:54:46.706Z,98847.26
2019-05-12T17:59:49.997Z,98854.98
2019-05-12T18:04:53.579Z,98859.67
2019-05-12T18:10:00.579Z,98870.53
2019-05-12T18:15:04.050Z,98884.80
2019-05-12T18:20:08.430Z,98885.55
2019-05-12T18:25:14.366Z,98887.16
2019-05-12T18:30:19.200Z,98893.89
2019-05-12T18:41:25.045Z,98915.42
2019-05-12T18:46:28.403Z,98916.49
2019-05-12T18:51:34.158Z,98923.67
2019-05-12T18:56:36.664Z,98926.59
2019-05-12T19:01:40.122Z,98940.78
2019-05-12T19:06:43.924Z,98947.88
2019-05-12T19:11:47.400Z,98959.81
2019-05-12T19:16:50.677Z,98964.77
2019-05-12T19:22:04.913Z,98971.89
2019-05-12T19:27:00.969Z,98967.28
2019-05-12T19:32:04.701Z,98977.69
2019-05-12T19:37:08.047Z,98980.12
2019-05-12T19:42:18.648Z,98983.39
2019-05-12T19:47:21.269Z,98991.32
2019-05-12T19:52:21.358Z,98995.97
2019-05-12T19:57:26.241Z,98998.05
2019-05-12T20:02:29.610Z,99011.48
2019-05-12T20:07:33.864Z,99008.14
2019-05-12T20:12:37.273Z,99003.83
2019-05-12T20:17:40.553Z,99007.90
2019-05-12T20:22:44.192Z,99011.58
2019-05-12T20:27:47.517Z,99018.39
2019-05-12T20:32:50.809Z,99014.66
2019-05-12T20:37:57.343Z,99012.53
2019-05-12T20:43:07.771Z,99015.22
2019-05-12T20:48:04.415Z,99012.61
2019-05-12T20:53:07.705Z,99020.87
2019-05-12T20:58:13.465Z,99024.78
2019-05-12T21:03:16.030Z,99023.91
2019-05-12T21:08:19.329Z,99018.25
2019-05-12T21:13:27.379Z,99017.91
2019-05-12T21:18:27.637Z,99017.97
2019-05-12T21:23:33.193Z,99017.69
2019-05-12T21:28:40.614Z,99020.22
2019-05-12T21:33:41.779Z,99031.98
2019-05-12T21:38:45.105Z,99036.71
2019-05-12T21:43:48.451Z,99036.38
2019-05-12T21:48:53.158Z,99039.28
2019-05-12T21:53:57.828Z,99041.05
2019-05-12T21:59:03.610Z,99044.16
2019-05-12T22:04:06.142Z,99035.92
2019-05-12T22:09:09.445Z,99042.19
2019-05-12T22:14:13.677Z,99039.16
2019-05-12T22:19:17.113Z,99047.87
2019-05-12T22:24:27.578Z,99043.56
2019-05-12T22:29:29.973Z,99046.14
2019-05-12T22:34:37.382Z,99043.63
2019-05-12T22:39:35.608Z,99055.73
2019-05-12T22:44:38.902Z,99055.73
2019-05-12T22:49:44.252Z,99051.39
2019-05-12T22:54:50.933Z,99058.11
2019-05-12T22:59:53.187Z,99058.11
2019-05-12T23:04:56.648Z,99058.66
2019-05-12T23:10:00.466Z,99063.55
2019-05-12T23:15:07.707Z,99058.91
2019-05-12T23:20:13.543Z,99065.92
2019-05-12T23:25:19.590Z,99069.14
2019-05-12T23:30:23.992Z,99071.23
2019-05-12T23:35:28.120Z,99068.14
2019-05-12T23:40:31.241Z,99073.27
2019-05-12T23:45:34.619Z,99066.25
2019-05-12T23:50:37.899Z,99073.27
2019-05-12T23:55:43.649Z,99060.22
